sensor_id;sensor_type;location;lat;lon;timestamp;pressure;altitude;pressure_sealevel;temperature;humidity
51313;BME280;37397;53.226;10.400;2023-01-27T00:00:34;101903.25;;;4.54;76.39
51313;BME280;37397;53.226;10.400;2023-01-27T00:03:01;101900.44;;;4.54;76.30
51313;BME280;37397;53.226;10.400;2023-01-27T00:05:27;101898.03;;;4.56;76.32
51313;BME280;37397;53.226;10.400;2023-01-27T00:07:54;101904.47;;;4.56;76.39
51313;BME280;37397;53.226;10.400;2023-01-27T00:10:24;101896.78;;;4.57;76.90
51313;BME280;37397;53.226;10.400;2023-01-27T00:12:50;101899.22;;;4.59;76.39
51313;BME280;37397;53.226;10.400;2023-01-27T00:15:36;101899.63;;;4.57;76.26
51313;BME280;37397;53.226;10.400;2023-01-27T00:18:03;101902.03;;;4.59;76.47
51313;BME280;37397;53.226;10.400;2023-01-27T00:20:29;101903.69;;;4.56;76.52
51313;BME280;37397;53.226;10.400;2023-01-27T00:23:24;101908.50;;;4.59;76.35
51313;BME280;37397;53.226;10.400;2023-01-27T00:26:13;101910.94;;;4.61;76.50
51313;BME280;37397;53.226;10.400;2023-01-27T00:28:42;101911.72;;;4.61;76.43
51313;BME280;37397;53.226;10.400;2023-01-27T00:31:10;101902.03;;;4.59;76.76
51313;BME280;37397;53.226;10.400;2023-01-27T00:33:56;101909.28;;;4.63;76.39
51313;BME280;37397;53.226;10.400;2023-01-27T00:36:28;101910.09;;;4.60;76.58
51313;BME280;37397;53.226;10.400;2023-01-27T00:38:55;101910.09;;;4.64;76.89
51313;BME280;37397;53.226;10.400;2023-01-27T00:41:21;101903.25;;;4.61;76.67
51313;BME280;37397;53.226;10.400;2023-01-27T00:43:52;101907.66;;;4.66;76.76
51313;BME280;37397;53.226;10.400;2023-01-27T00:46:23;101908.88;;;4.65;76.72
51313;BME280;37397;53.226;10.400;2023-01-27T00:48:50;101908.06;;;4.64;76.55
51313;BME280;37397;53.226;10.400;2023-01-27T00:51:18;101918.94;;;4.69;76.69
51313;BME280;37397;53.226;10.400;2023-01-27T00:53:45;101917.72;;;4.67;76.61
51313;BME280;37397;53.226;10.400;2023-01-27T00:56:12;101927.84;;;4.68;76.92
51313;BME280;37397;53.226;10.400;2023-01-27T00:58:40;101933.47;;;4.71;76.86
51313;BME280;37397;53.226;10.400;2023-01-27T01:01:11;101933.47;;;4.71;76.65
51313;BME280;37397;53.226;10.400;2023-01-27T01:03:38;101924.59;;;4.69;76.78
51313;BME280;37397;53.226;10.400;2023-01-27T01:06:07;101937.50;;;4.74;77.05
51313;BME280;37397;53.226;10.400;2023-01-27T01:08:35;101933.88;;;4.73;76.83
51313;BME280;37397;53.226;10.400;2023-01-27T01:11:04;101940.72;;;4.76;76.79
51313;BME280;37397;53.226;10.400;2023-01-27T01:13:31;101934.25;;;4.75;76.90
51313;BME280;37397;53.226;10.400;2023-01-27T01:16:11;101926.56;;;4.76;76.68
51313;BME280;37397;53.226;10.400;2023-01-27T01:18:39;101936.25;;;4.79;77.16
51313;BME280;37397;53.226;10.400;2023-01-27T01:21:06;101935.06;;;4.76;76.92
51313;BME280;37397;53.226;10.400;2023-01-27T01:23:41;101947.94;;;4.81;76.97
51313;BME280;37397;53.226;10.400;2023-01-27T01:26:09;101941.50;;;4.80;77.11
51313;BME280;37397;53.226;10.400;2023-01-27T01:28:36;101948.75;;;4.81;77.13
51313;BME280;37397;53.226;10.400;2023-01-27T01:31:10;101928.53;;;4.83;77.17
51313;BME280;37397;53.226;10.400;2023-01-27T01:33:38;101940.25;;;4.85;77.22
51313;BME280;37397;53.226;10.400;2023-01-27T01:36:10;101949.53;;;4.85;77.57
51313;BME280;37397;53.226;10.400;2023-01-27T01:38:37;101957.63;;;4.87;77.66
51313;BME280;37397;53.226;10.400;2023-01-27T01:41:06;101949.50;;;4.89;77.57
51313;BME280;37397;53.226;10.400;2023-01-27T01:43:33;101957.22;;;4.88;77.80
51313;BME280;37397;53.226;10.400;2023-01-27T01:46:00;101939.03;;;4.86;77.70
51313;BME280;37397;53.226;10.400;2023-01-27T01:48:34;101943.03;;;4.92;77.71
51313;BME280;37397;53.226;10.400;2023-01-27T01:51:08;101955.97;;;4.93;77.71
51313;BME280;37397;53.226;10.400;2023-01-27T01:54:00;101952.72;;;4.91;77.96
51313;BME280;37397;53.226;10.400;2023-01-27T01:56:47;101953.56;;;4.91;77.70
51313;BME280;37397;53.226;10.400;2023-01-27T01:59:21;101954.34;;;4.92;77.57
51313;BME280;37397;53.226;10.400;2023-01-27T02:01:54;101948.69;;;4.92;77.69
51313;BME280;37397;53.226;10.400;2023-01-27T02:04:25;101951.91;;;4.94;77.63
51313;BME280;37397;53.226;10.400;2023-01-27T02:07:16;101959.97;;;4.96;78.13
51313;BME280;37397;53.226;10.400;2023-01-27T02:09:44;101968.03;;;4.97;78.10
51313;BME280;37397;53.226;10.400;2023-01-27T02:12:12;101957.97;;;4.96;78.19
51313;BME280;37397;53.226;10.400;2023-01-27T02:14:39;101943.81;;;4.96;78.23
51313;BME280;37397;53.226;10.400;2023-01-27T02:17:07;101964.38;;;5.00;77.99
51313;BME280;37397;53.226;10.400;2023-01-27T02:22:48;101962.38;;;4.97;78.18
51313;BME280;37397;53.226;10.400;2023-01-27T02:25:22;101963.56;;;5.03;78.15
51313;BME280;37397;53.226;10.400;2023-01-27T02:27:51;101965.59;;;5.03;78.28
51313;BME280;37397;53.226;10.400;2023-01-27T02:30:18;101965.59;;;5.03;78.08
51313;BME280;37397;53.226;10.400;2023-01-27T02:32:44;101966.41;;;5.03;77.90
51313;BME280;37397;53.226;10.400;2023-01-27T02:35:15;101976.50;;;5.04;78.19
51313;BME280;37397;53.226;10.400;2023-01-27T02:37:45;101969.59;;;5.05;77.98
51313;BME280;37397;53.226;10.400;2023-01-27T02:40:14;101974.06;;;5.06;78.10
51313;BME280;37397;53.226;10.400;2023-01-27T02:42:40;101975.25;;;5.09;78.18
51313;BME280;37397;53.226;10.400;2023-01-27T02:45:07;101980.88;;;5.13;78.04
51313;BME280;37397;53.226;10.400;2023-01-27T02:47:34;101980.88;;;5.13;78.07
51313;BME280;37397;53.226;10.400;2023-01-27T02:50:00;101989.38;;;5.13;78.17
51313;BME280;37397;53.226;10.400;2023-01-27T02:52:28;101987.75;;;5.11;78.30
51313;BME280;37397;53.226;10.400;2023-01-27T02:54:57;101990.19;;;5.13;78.30
51313;BME280;37397;53.226;10.400;2023-01-27T02:57:24;101993.81;;;5.14;78.12
51313;BME280;37397;53.226;10.400;2023-01-27T03:00:05;101997.03;;;5.16;78.18
51313;BME280;37397;53.226;10.400;2023-01-27T03:02:34;101997.03;;;5.16;77.73
51313;BME280;37397;53.226;10.400;2023-01-27T03:05:01;101995.41;;;5.15;78.10
51313;BME280;37397;53.226;10.400;2023-01-27T03:07:28;101996.63;;;5.17;77.99
51313;BME280;37397;53.226;10.400;2023-01-27T03:09:55;102004.28;;;5.17;77.74
51313;BME280;37397;53.226;10.400;2023-01-27T03:12:21;102004.28;;;5.17;77.72
51313;BME280;37397;53.226;10.400;2023-01-27T03:14:50;102010.38;;;5.19;77.95
51313;BME280;37397;53.226;10.400;2023-01-27T03:17:37;102009.13;;;5.20;78.16
51313;BME280;37397;53.226;10.400;2023-01-27T03:20:22;102026.50;;;5.18;77.82
51313;BME280;37397;53.226;10.400;2023-01-27T03:22:49;102010.75;;;5.21;77.93
51313;BME280;37397;53.226;10.400;2023-01-27T03:25:17;102022.06;;;5.21;77.99
51313;BME280;37397;53.226;10.400;2023-01-27T03:27:44;102014.41;;;5.18;77.76
51313;BME280;37397;53.226;10.400;2023-01-27T03:30:34;102033.38;;;5.21;78.10
51313;BME280;37397;53.226;10.400;2023-01-27T03:33:09;102020.44;;;5.20;78.25
51313;BME280;37397;53.226;10.400;2023-01-27T03:36:00;102017.22;;;5.18;78.08
51313;BME280;37397;53.226;10.400;2023-01-27T03:38:48;102036.22;;;5.21;77.88
51313;BME280;37397;53.226;10.400;2023-01-27T03:41:33;102044.69;;;5.21;78.23
51313;BME280;37397;53.226;10.400;2023-01-27T03:44:20;102035.81;;;5.19;77.83
51313;BME280;37397;53.226;10.400;2023-01-27T03:47:06;102040.66;;;5.22;77.99
51313;BME280;37397;53.226;10.400;2023-01-27T03:49:32;102043.88;;;5.24;77.88
51313;BME280;37397;53.226;10.400;2023-01-27T03:51:59;102043.50;;;5.22;77.99
51313;BME280;37397;53.226;10.400;2023-01-27T03:54:25;102038.63;;;5.22;77.70
51313;BME280;37397;53.226;10.400;2023-01-27T03:56:52;102048.75;;;5.23;77.88
51313;BME280;37397;53.226;10.400;2023-01-27T03:59:18;102051.16;;;5.25;77.71
51313;BME280;37397;53.226;10.400;2023-01-27T04:01:45;102058.41;;;5.26;77.80
51313;BME280;37397;53.226;10.400;2023-01-27T04:04:13;102063.69;;;5.24;77.59
51313;BME280;37397;53.226;10.400;2023-01-27T04:06:58;102068.53;;;5.27;77.78
51313;BME280;37397;53.226;10.400;2023-01-27T04:09:34;102065.69;;;5.27;77.38
51313;BME280;37397;53.226;10.400;2023-01-27T04:12:05;102060.03;;;5.27;77.41
51313;BME280;37397;53.226;10.400;2023-01-27T04:14:36;102075.41;;;5.26;77.54
51313;BME280;37397;53.226;10.400;2023-01-27T04:17:11;102072.16;;;5.27;77.54
51313;BME280;37397;53.226;10.400;2023-01-27T04:19:38;102063.31;;;5.22;77.27
51313;BME280;37397;53.226;10.400;2023-01-27T04:22:05;102082.69;;;5.27;77.46
51313;BME280;37397;53.226;10.400;2023-01-27T04:24:32;102072.16;;;5.27;77.55
51313;BME280;37397;53.226;10.400;2023-01-27T04:27:01;102075.78;;;5.28;77.56
51313;BME280;37397;53.226;10.400;2023-01-27T04:29:31;102081.44;;;5.28;77.39
51313;BME280;37397;53.226;10.400;2023-01-27T04:31:58;102081.06;;;5.26;77.03
51313;BME280;37397;53.226;10.400;2023-01-27T04:34:25;102085.88;;;5.29;76.97
51313;BME280;37397;53.226;10.400;2023-01-27T04:36:52;102091.56;;;5.29;77.16
51313;BME280;37397;53.226;10.400;2023-01-27T04:39:19;102087.91;;;5.28;77.25
51313;BME280;37397;53.226;10.400;2023-01-27T04:41:46;102096.81;;;5.27;77.31
51313;BME280;37397;53.226;10.400;2023-01-27T04:44:14;102107.75;;;5.28;77.02
51313;BME280;37397;53.226;10.400;2023-01-27T04:46:41;102109.75;;;5.28;76.98
51313;BME280;37397;53.226;10.400;2023-01-27T04:49:07;102103.34;;;5.20;77.02
51313;BME280;37397;53.226;10.400;2023-01-27T04:51:33;102112.22;;;5.22;76.88
51313;BME280;37397;53.226;10.400;2023-01-27T04:54:00;102112.56;;;5.28;77.06
51313;BME280;37397;53.226;10.400;2023-01-27T04:56:37;102123.09;;;5.27;76.87
51313;BME280;37397;53.226;10.400;2023-01-27T04:59:06;102123.88;;;5.28;76.76
51313;BME280;37397;53.226;10.400;2023-01-27T05:01:33;102124.34;;;5.26;76.84
51313;BME280;37397;53.226;10.400;2023-01-27T05:04:00;102125.13;;;5.27;76.80
51313;BME280;37397;53.226;10.400;2023-01-27T05:06:26;102130.78;;;5.27;76.95
51313;BME280;37397;53.226;10.400;2023-01-27T05:08:53;102125.13;;;5.27;76.60
51313;BME280;37397;53.226;10.400;2023-01-27T05:11:20;102131.59;;;5.24;76.69
51313;BME280;37397;53.226;10.400;2023-01-27T05:13:47;102134.41;;;5.27;76.74
51313;BME280;37397;53.226;10.400;2023-01-27T05:16:19;102139.28;;;5.27;76.73
51313;BME280;37397;53.226;10.400;2023-01-27T05:18:47;102130.41;;;5.21;76.64
51313;BME280;37397;53.226;10.400;2023-01-27T05:21:17;102138.88;;;5.21;76.54
51313;BME280;37397;53.226;10.400;2023-01-27T05:23:44;102144.56;;;5.25;76.66
51313;BME280;37397;53.226;10.400;2023-01-27T05:28:45;102146.56;;;5.24;76.53
51313;BME280;37397;53.226;10.400;2023-01-27T05:31:14;102146.56;;;5.24;76.69
51313;BME280;37397;53.226;10.400;2023-01-27T05:33:41;102144.13;;;5.23;76.64
51313;BME280;37397;53.226;10.400;2023-01-27T05:36:10;102142.13;;;5.20;76.90
51313;BME280;37397;53.226;10.400;2023-01-27T05:38:37;102144.13;;;5.23;76.67
51313;BME280;37397;53.226;10.400;2023-01-27T05:41:05;102149.41;;;5.21;76.64
51313;BME280;37397;53.226;10.400;2023-01-27T05:43:34;102146.56;;;5.24;77.05
51313;BME280;37397;53.226;10.400;2023-01-27T05:48:35;102156.69;;;5.18;76.55
51313;BME280;37397;53.226;10.400;2023-01-27T05:51:04;102147.44;;;5.14;76.85
51313;BME280;37397;53.226;10.400;2023-01-27T05:53:31;102158.72;;;5.18;76.90
51313;BME280;37397;53.226;10.400;2023-01-27T05:55:57;102159.94;;;5.20;76.71
51313;BME280;37397;53.226;10.400;2023-01-27T05:58:24;102154.69;;;5.19;76.59
51313;BME280;37397;53.226;10.400;2023-01-27T06:00:52;102155.06;;;5.21;76.63
51313;BME280;37397;53.226;10.400;2023-01-27T06:03:19;102160.72;;;5.21;76.84
51313;BME280;37397;53.226;10.400;2023-01-27T06:05:54;102152.25;;;5.21;76.63
51313;BME280;37397;53.226;10.400;2023-01-27T06:08:25;102161.16;;;5.19;76.84
51313;BME280;37397;53.226;10.400;2023-01-27T06:10:52;102152.25;;;5.21;76.60
51313;BME280;37397;53.226;10.400;2023-01-27T06:13:23;102162.75;;;5.20;76.56
51313;BME280;37397;53.226;10.400;2023-01-27T06:15:50;102147.41;;;5.18;76.58
51313;BME280;37397;53.226;10.400;2023-01-27T06:18:18;102157.09;;;5.20;76.58
51313;BME280;37397;53.226;10.400;2023-01-27T06:20:45;102151.44;;;5.20;76.37
51313;BME280;37397;53.226;10.400;2023-01-27T06:23:13;102166.41;;;5.21;76.66
51313;BME280;37397;53.226;10.400;2023-01-27T06:25:45;102164.78;;;5.20;76.57
51313;BME280;37397;53.226;10.400;2023-01-27T06:28:13;102158.72;;;5.18;76.72
51313;BME280;37397;53.226;10.400;2023-01-27T06:30:54;102164.78;;;5.20;76.82
51313;BME280;37397;53.226;10.400;2023-01-27T06:33:21;102163.97;;;5.19;76.61
51313;BME280;37397;53.226;10.400;2023-01-27T06:35:48;102174.09;;;5.20;76.56
51313;BME280;37397;53.226;10.400;2023-01-27T06:38:14;102171.25;;;5.17;76.77
51313;BME280;37397;53.226;10.400;2023-01-27T06:40:41;102170.03;;;5.18;76.42
51313;BME280;37397;53.226;10.400;2023-01-27T06:43:13;102183.00;;;5.19;76.55
51313;BME280;37397;53.226;10.400;2023-01-27T06:45:40;102185.41;;;5.17;76.62
51313;BME280;37397;53.226;10.400;2023-01-27T06:48:07;102187.81;;;5.18;76.55
51313;BME280;37397;53.226;10.400;2023-01-27T06:50:34;102197.53;;;5.21;76.73
51313;BME280;37397;53.226;10.400;2023-01-27T06:53:03;102202.38;;;5.20;76.63
51313;BME280;37397;53.226;10.400;2023-01-27T06:55:30;102202.78;;;5.19;76.63
51313;BME280;37397;53.226;10.400;2023-01-27T06:57:57;102197.53;;;5.17;76.70
51313;BME280;37397;53.226;10.400;2023-01-27T07:00:24;102197.53;;;5.17;76.74
51313;BME280;37397;53.226;10.400;2023-01-27T07:02:50;102208.88;;;5.17;76.66
51313;BME280;37397;53.226;10.400;2023-01-27T07:05:19;102210.47;;;5.15;76.54
51313;BME280;37397;53.226;10.400;2023-01-27T07:07:45;102209.66;;;5.18;76.64
51313;BME280;37397;53.226;10.400;2023-01-27T07:10:12;102225.44;;;5.19;76.61
51313;BME280;37397;53.226;10.400;2023-01-27T07:12:38;102226.66;;;5.18;76.67
51313;BME280;37397;53.226;10.400;2023-01-27T07:15:07;102227.44;;;5.18;76.33
51313;BME280;37397;53.226;10.400;2023-01-27T07:17:34;102233.09;;;5.18;76.14
51313;BME280;37397;53.226;10.400;2023-01-27T07:20:02;102239.59;;;5.19;76.62
51313;BME280;37397;53.226;10.400;2023-01-27T07:22:29;102235.53;;;5.16;76.54
51313;BME280;37397;53.226;10.400;2023-01-27T07:24:55;102254.16;;;5.17;76.43
51313;BME280;37397;53.226;10.400;2023-01-27T07:27:23;102250.91;;;5.19;76.62
51313;BME280;37397;53.226;10.400;2023-01-27T07:29:49;102255.34;;;5.16;76.61
51313;BME280;37397;53.226;10.400;2023-01-27T07:32:16;102258.19;;;5.16;76.33
51313;BME280;37397;53.226;10.400;2023-01-27T07:34:43;102267.47;;;5.17;76.38
51313;BME280;37397;53.226;10.400;2023-01-27T07:37:10;102269.50;;;5.16;76.28
51313;BME280;37397;53.226;10.400;2023-01-27T07:39:36;102278.78;;;5.17;76.31
51313;BME280;37397;53.226;10.400;2023-01-27T07:42:04;102279.22;;;5.19;76.19
51313;BME280;37397;53.226;10.400;2023-01-27T07:44:31;102282.44;;;5.17;76.26
51313;BME280;37397;53.226;10.400;2023-01-27T07:46:57;102287.28;;;5.17;76.66
51313;BME280;37397;53.226;10.400;2023-01-27T07:49:24;102285.66;;;5.19;76.44
51313;BME280;37397;53.226;10.400;2023-01-27T07:51:53;102281.22;;;5.15;76.34
51313;BME280;37397;53.226;10.400;2023-01-27T07:54:19;102292.94;;;5.17;76.52
51313;BME280;37397;53.226;10.400;2023-01-27T07:56:46;102307.91;;;5.17;76.32
51313;BME280;37397;53.226;10.400;2023-01-27T07:59:12;102295.78;;;5.17;76.69
51313;BME280;37397;53.226;10.400;2023-01-27T08:01:39;102306.69;;;5.18;76.48
51313;BME280;37397;53.226;10.400;2023-01-27T08:04:07;102308.72;;;5.14;76.23
51313;BME280;37397;53.226;10.400;2023-01-27T08:06:33;102292.16;;;5.13;76.57
51313;BME280;37397;53.226;10.400;2023-01-27T08:09:00;102309.50;;;5.18;76.68
51313;BME280;37397;53.226;10.400;2023-01-27T08:11:26;102300.22;;;5.18;76.54
51313;BME280;37397;53.226;10.400;2023-01-27T08:13:53;102307.50;;;5.19;76.42
51313;BME280;37397;53.226;10.400;2023-01-27T08:16:19;102305.50;;;5.16;76.37
51313;BME280;37397;53.226;10.400;2023-01-27T08:18:46;102309.53;;;5.15;76.36
51313;BME280;37397;53.226;10.400;2023-01-27T08:21:15;102315.97;;;5.15;76.25
51313;BME280;37397;53.226;10.400;2023-01-27T08:23:41;102307.94;;;5.14;76.04
51313;BME280;37397;53.226;10.400;2023-01-27T08:26:08;102300.22;;;5.14;76.07
51313;BME280;37397;53.226;10.400;2023-01-27T08:28:36;102305.09;;;5.14;76.52
51313;BME280;37397;53.226;10.400;2023-01-27T08:31:05;102307.09;;;5.13;76.08
51313;BME280;37397;53.226;10.400;2023-01-27T08:33:32;102319.63;;;5.16;76.09
51313;BME280;37397;53.226;10.400;2023-01-27T08:36:07;102312.34;;;5.15;76.30
51313;BME280;37397;53.226;10.400;2023-01-27T08:38:34;102307.09;;;5.17;76.23
51313;BME280;37397;53.226;10.400;2023-01-27T08:41:08;102310.31;;;5.15;76.26
51313;BME280;37397;53.226;10.400;2023-01-27T08:43:35;102306.31;;;5.13;76.28
51313;BME280;37397;53.226;10.400;2023-01-27T08:46:02;102313.97;;;5.16;76.00
51313;BME280;37397;53.226;10.400;2023-01-27T08:48:30;102313.16;;;5.11;76.32
51313;BME280;37397;53.226;10.400;2023-01-27T08:51:01;102324.09;;;5.13;76.36
51313;BME280;37397;53.226;10.400;2023-01-27T08:53:28;102318.81;;;5.11;76.27
51313;BME280;37397;53.226;10.400;2023-01-27T08:55:56;102323.66;;;5.15;76.16
51313;BME280;37397;53.226;10.400;2023-01-27T08:58:23;102324.47;;;5.11;76.57
51313;BME280;37397;53.226;10.400;2023-01-27T09:00:50;102324.91;;;5.14;76.28
51313;BME280;37397;53.226;10.400;2023-01-27T09:03:16;102327.75;;;5.14;76.21
51313;BME280;37397;53.226;10.400;2023-01-27T09:05:43;102326.13;;;5.13;76.11
51313;BME280;37397;53.226;10.400;2023-01-27T09:08:10;102324.47;;;5.15;76.03
51313;BME280;37397;53.226;10.400;2023-01-27T09:10:40;102328.13;;;5.16;76.06
51313;BME280;37397;53.226;10.400;2023-01-27T09:13:07;102320.44;;;5.13;75.93
51313;BME280;37397;53.226;10.400;2023-01-27T09:15:35;102329.72;;;5.17;76.34
51313;BME280;37397;53.226;10.400;2023-01-27T09:18:02;102330.13;;;5.15;76.03
51313;BME280;37397;53.226;10.400;2023-01-27T09:20:32;102322.06;;;5.14;76.26
51313;BME280;37397;53.226;10.400;2023-01-27T09:23:00;102318.41;;;5.13;75.68
51313;BME280;37397;53.226;10.400;2023-01-27T09:25:26;102325.31;;;5.16;75.79
51313;BME280;37397;53.226;10.400;2023-01-27T09:27:54;102347.94;;;5.16;75.97
51313;BME280;37397;53.226;10.400;2023-01-27T09:30:21;102343.06;;;5.16;75.95
51313;BME280;37397;53.226;10.400;2023-01-27T09:32:47;102349.53;;;5.17;76.00
51313;BME280;37397;53.226;10.400;2023-01-27T09:35:15;102362.09;;;5.16;75.82
51313;BME280;37397;53.226;10.400;2023-01-27T09:37:56;102349.94;;;5.15;75.71
51313;BME280;37397;53.226;10.400;2023-01-27T09:40:49;102350.38;;;5.14;75.94
51313;BME280;37397;53.226;10.400;2023-01-27T09:43:35;102350.38;;;5.14;75.60
51313;BME280;37397;53.226;10.400;2023-01-27T09:54:55;102354.41;;;5.13;75.54
51313;BME280;37397;53.226;10.400;2023-01-27T09:57:46;102352.38;;;5.13;75.82
51313;BME280;37397;53.226;10.400;2023-01-27T10:05:55;102353.59;;;5.16;75.81
51313;BME280;37397;53.226;10.400;2023-01-27T10:08:33;102353.59;;;5.16;75.74
51313;BME280;37397;53.226;10.400;2023-01-27T10:14:13;102359.25;;;5.16;75.59
51313;BME280;37397;53.226;10.400;2023-01-27T10:17:02;102356.44;;;5.16;75.58
51313;BME280;37397;53.226;10.400;2023-01-27T10:20:18;102349.16;;;5.15;75.45
51313;BME280;37397;53.226;10.400;2023-01-27T10:25:41;102360.47;;;5.15;75.71
51313;BME280;37397;53.226;10.400;2023-01-27T10:28:13;102357.63;;;5.18;75.56
51313;BME280;37397;53.226;10.400;2023-01-27T10:33:42;102345.50;;;5.18;75.40
51313;BME280;37397;53.226;10.400;2023-01-27T10:41:51;102365.72;;;5.20;75.41
51313;BME280;37397;53.226;10.400;2023-01-27T10:44:41;102364.13;;;5.19;75.45
51313;BME280;37397;53.226;10.400;2023-01-27T10:47:17;102373.00;;;5.21;75.40
51313;BME280;37397;53.226;10.400;2023-01-27T10:49:52;102367.34;;;5.21;75.18
51313;BME280;37397;53.226;10.400;2023-01-27T10:52:41;102366.53;;;5.17;75.45
51313;BME280;37397;53.226;10.400;2023-01-27T10:55:24;102364.50;;;5.17;75.46
51313;BME280;37397;53.226;10.400;2023-01-27T10:58:00;102366.53;;;5.17;75.55
51313;BME280;37397;53.226;10.400;2023-01-27T11:00:32;102368.94;;;5.18;75.46
51313;BME280;37397;53.226;10.400;2023-01-27T11:03:32;102363.28;;;5.18;75.17
51313;BME280;37397;53.226;10.400;2023-01-27T11:06:06;102363.28;;;5.18;75.12
51313;BME280;37397;53.226;10.400;2023-01-27T11:08:35;102370.97;;;5.14;75.40
51313;BME280;37397;53.226;10.400;2023-01-27T11:11:06;102364.91;;;5.16;75.70
51313;BME280;37397;53.226;10.400;2023-01-27T11:13:59;102366.53;;;5.17;75.31
51313;BME280;37397;53.226;10.400;2023-01-27T11:16:31;102364.13;;;5.19;75.51
51313;BME280;37397;53.226;10.400;2023-01-27T11:19:09;102356.41;;;5.19;75.34
51313;BME280;37397;53.226;10.400;2023-01-27T11:21:38;102339.03;;;5.17;75.53
51313;BME280;37397;53.226;10.400;2023-01-27T11:24:18;102348.72;;;5.20;75.18
51313;BME280;37397;53.226;10.400;2023-01-27T11:26:59;102352.78;;;5.19;74.98
51313;BME280;37397;53.226;10.400;2023-01-27T11:29:36;102360.47;;;5.22;75.41
51313;BME280;37397;53.226;10.400;2023-01-27T11:32:17;102361.66;;;5.21;75.02
51313;BME280;37397;53.226;10.400;2023-01-27T11:37:39;102351.97;;;5.22;74.83
51313;BME280;37397;53.226;10.400;2023-01-27T11:40:33;102344.72;;;5.17;74.88
51313;BME280;37397;53.226;10.400;2023-01-27T11:43:01;102341.88;;;5.21;74.87
51313;BME280;37397;53.226;10.400;2023-01-27T11:45:35;102343.47;;;5.18;74.89
51313;BME280;37397;53.226;10.400;2023-01-27T11:48:04;102343.50;;;5.22;74.78
51313;BME280;37397;53.226;10.400;2023-01-27T11:50:34;102340.66;;;5.22;74.82
51313;BME280;37397;53.226;10.400;2023-01-27T11:53:27;102340.25;;;5.23;74.93
51313;BME280;37397;53.226;10.400;2023-01-27T11:55:57;102345.09;;;5.23;74.83
51313;BME280;37397;53.226;10.400;2023-01-27T11:58:31;102343.09;;;5.23;74.75
51313;BME280;37397;53.226;10.400;2023-01-27T12:01:03;102341.47;;;5.22;74.63
51313;BME280;37397;53.226;10.400;2023-01-27T12:04:05;102338.63;;;5.26;74.59
51313;BME280;37397;53.226;10.400;2023-01-27T12:06:41;102344.28;;;5.26;74.36
51313;BME280;37397;53.226;10.400;2023-01-27T12:09:33;102347.50;;;5.24;74.50
51313;BME280;37397;53.226;10.400;2023-01-27T12:12:23;102343.47;;;5.25;74.47
51313;BME280;37397;53.226;10.400;2023-01-27T12:14:53;102349.53;;;5.27;74.55
51313;BME280;37397;53.226;10.400;2023-01-27T12:17:28;102334.19;;;5.25;74.32
51313;BME280;37397;53.226;10.400;2023-01-27T12:20:05;102340.25;;;5.27;74.64
51313;BME280;37397;53.226;10.400;2023-01-27T12:22:36;102336.19;;;5.28;74.16
51313;BME280;37397;53.226;10.400;2023-01-27T12:25:06;102326.09;;;5.27;74.14
51313;BME280;37397;53.226;10.400;2023-01-27T12:27:41;102332.94;;;5.29;73.91
51313;BME280;37397;53.226;10.400;2023-01-27T12:30:32;102318.41;;;5.24;74.09
51313;BME280;37397;53.226;10.400;2023-01-27T12:33:08;102322.03;;;5.24;74.17
51313;BME280;37397;53.226;10.400;2023-01-27T12:35:36;102328.09;;;5.23;74.26
51313;BME280;37397;53.226;10.400;2023-01-27T12:38:12;102326.91;;;5.24;73.94
51313;BME280;37397;53.226;10.400;2023-01-27T12:40:43;102322.88;;;5.25;74.10
51313;BME280;37397;53.226;10.400;2023-01-27T12:43:16;102317.22;;;5.25;74.15
51313;BME280;37397;53.226;10.400;2023-01-27T12:45:44;102339.44;;;5.26;73.73
51313;BME280;37397;53.226;10.400;2023-01-27T12:48:29;102331.75;;;5.27;74.13
51313;BME280;37397;53.226;10.400;2023-01-27T12:51:13;102339.84;;;5.25;73.47
51313;BME280;37397;53.226;10.400;2023-01-27T12:53:40;102335.78;;;5.26;73.88
51313;BME280;37397;53.226;10.400;2023-01-27T12:56:21;102331.75;;;5.23;73.72
51313;BME280;37397;53.226;10.400;2023-01-27T13:01:30;102338.63;;;5.26;73.39
51313;BME280;37397;53.226;10.400;2023-01-27T13:04:02;102331.34;;;5.25;73.13
51313;BME280;37397;53.226;10.400;2023-01-27T13:06:48;102327.72;;;5.21;73.36
51313;BME280;37397;53.226;10.400;2023-01-27T13:09:23;102323.69;;;5.22;73.42
51313;BME280;37397;53.226;10.400;2023-01-27T13:11:54;102330.53;;;5.21;73.32
51313;BME280;37397;53.226;10.400;2023-01-27T13:14:21;102328.94;;;5.23;73.36
51313;BME280;37397;53.226;10.400;2023-01-27T13:16:53;102332.56;;;5.24;73.45
51313;BME280;37397;53.226;10.400;2023-01-27T13:19:29;102334.59;;;5.23;72.85
51313;BME280;37397;53.226;10.400;2023-01-27T13:21:59;102322.84;;;5.21;73.16
51313;BME280;37397;53.226;10.400;2023-01-27T13:24:39;102334.16;;;5.21;73.27
51313;BME280;37397;53.226;10.400;2023-01-27T13:27:14;102328.50;;;5.21;73.07
51313;BME280;37397;53.226;10.400;2023-01-27T13:29:57;102327.72;;;5.21;73.12
51313;BME280;37397;53.226;10.400;2023-01-27T13:32:27;102335.78;;;5.22;72.98
51313;BME280;37397;53.226;10.400;2023-01-27T13:35:17;102339.03;;;5.21;72.59
51313;BME280;37397;53.226;10.400;2023-01-27T13:40:34;102338.63;;;5.22;73.14
51313;BME280;37397;53.226;10.400;2023-01-27T13:46:23;102328.13;;;5.19;73.17
51313;BME280;37397;53.226;10.400;2023-01-27T13:48:57;102333.38;;;5.21;73.37
51313;BME280;37397;53.226;10.400;2023-01-27T13:51:28;102334.56;;;5.20;73.02
51313;BME280;37397;53.226;10.400;2023-01-27T13:53:59;102343.88;;;5.24;73.04
51313;BME280;37397;53.226;10.400;2023-01-27T13:56:47;102343.06;;;5.20;73.26
51313;BME280;37397;53.226;10.400;2023-01-27T14:05:27;102339.03;;;5.21;72.83
51313;BME280;37397;53.226;10.400;2023-01-27T14:08:13;102340.66;;;5.22;73.16